createdAt,value
2023-01-19T00:03:58.704Z,99219.06
2023-01-19T00:06:26.025Z,99240.53
2023-01-19T00:08:52.533Z,99251.72
2023-01-19T00:11:19.071Z,99252.84
2023-01-19T00:13:45.549Z,99250.50
2023-01-19T00:16:11.991Z,99253.28
2023-01-19T00:18:40.270Z,99266.84
2023-01-19T00:21:09.327Z,99262.34
2023-01-19T00:23:35.850Z,99263.63
2023-01-19T00:26:02.306Z,99260.06
2023-01-19T00:28:29.537Z,99262.13
2023-01-19T00:30:58.733Z,99273.63
2023-01-19T00:33:27.048Z,99282.22
2023-01-19T00:35:54.324Z,99292.63
2023-01-19T00:38:23.474Z,99299.00
2023-01-19T00:40:51.836Z,99301.34
2023-01-19T00:43:20.128Z,99297.50
2023-01-19T00:45:46.588Z,99313.84
2023-01-19T00:48:15.778Z,99308.28
2023-01-19T00:50:44.061Z,99309.88
2023-01-19T00:53:10.491Z,99313.25
2023-01-19T00:55:40.412Z,99306.63
2023-01-19T00:58:07.653Z,99297.16
2023-01-19T01:00:34.204Z,99295.41
2023-01-19T01:03:01.063Z,99292.22
2023-01-19T01:05:29.595Z,99293.78
2023-01-19T01:07:56.007Z,99295.00
2023-01-19T01:10:24.335Z,99293.97
2023-01-19T01:12:53.657Z,99287.88
2023-01-19T01:15:25.924Z,99283.19
2023-01-19T01:17:52.267Z,99283.88
2023-01-19T01:20:19.504Z,99288.41
2023-01-19T01:22:46.751Z,99293.88
2023-01-19T01:25:15.096Z,99286.38
2023-01-19T01:27:42.347Z,99285.63
2023-01-19T01:30:08.835Z,99281.53
2023-01-19T01:32:35.268Z,99280.91
2023-01-19T01:37:46.410Z,99281.25
2023-01-19T01:40:15.582Z,99278.13
2023-01-19T01:42:42.060Z,99280.06
2023-01-19T01:45:09.302Z,99274.84
2023-01-19T01:47:35.761Z,99269.78
2023-01-19T01:53:06.412Z,99269.78
2023-01-19T01:55:34.199Z,99261.44
2023-01-19T01:58:02.510Z,99267.34
2023-01-19T02:00:28.935Z,99275.28
2023-01-19T02:02:59.262Z,99278.13
2023-01-19T02:08:21.809Z,99275.00
2023-01-19T02:10:49.049Z,99256.16
2023-01-19T02:13:15.599Z,99258.31
2023-01-19T02:15:42.087Z,99265.09
2023-01-19T02:18:09.390Z,99266.66
2023-01-19T02:23:21.949Z,99267.00
2023-01-19T02:25:51.136Z,99262.66
2023-01-19T02:28:18.405Z,99261.44
2023-01-19T02:30:44.847Z,99265.91
2023-01-19T02:33:12.123Z,99266.66
2023-01-19T02:38:22.693Z,99272.50
2023-01-19T02:40:49.165Z,99271.47
2023-01-19T02:43:17.459Z,99268.59
2023-01-19T02:45:44.748Z,99270.94
2023-01-19T02:48:13.098Z,99265.09
2023-01-19T02:53:25.360Z,99278.91
2023-01-19T02:55:51.820Z,99274.66
2023-01-19T02:58:18.333Z,99282.84
2023-01-19T03:00:46.611Z,99286.56
2023-01-19T03:03:14.878Z,99288.47
2023-01-19T03:08:37.311Z,99276.84
2023-01-19T03:11:03.846Z,99268.22
2023-01-19T03:13:30.272Z,99268.94
2023-01-19T03:15:59.460Z,99260.34
2023-01-19T03:18:27.840Z,99264.31
2023-01-19T03:23:40.089Z,99270.56
2023-01-19T03:26:09.170Z,99278.91
2023-01-19T03:28:38.334Z,99287.16
2023-01-19T03:31:06.655Z,99290.13
2023-01-19T03:33:36.619Z,99288.47
2023-01-19T03:39:00.870Z,99293.63
2023-01-19T03:41:27.302Z,99299.69
2023-01-19T03:43:56.495Z,99297.25
2023-01-19T03:46:24.815Z,99303.31
2023-01-19T03:48:53.154Z,99312.78
2023-01-19T03:54:05.599Z,99318.34
2023-01-19T03:56:32.071Z,99321.59
2023-01-19T03:59:00.379Z,99326.25
2023-01-19T04:01:29.622Z,99328.34
2023-01-19T04:03:58.008Z,99332.72
2023-01-19T04:09:09.309Z,99343.44
2023-01-19T04:11:37.576Z,99343.75
2023-01-19T04:14:04.049Z,99347.81
2023-01-19T04:16:32.343Z,99338.63
2023-01-19T04:18:58.827Z,99344.09
2023-01-19T04:24:19.992Z,99346.59
2023-01-19T04:26:48.325Z,99342.59
2023-01-19T04:29:14.783Z,99348.16
2023-01-19T04:31:41.206Z,99351.72
2023-01-19T04:34:08.427Z,99355.81
2023-01-19T04:39:22.633Z,99370.81
2023-01-19T04:41:51.806Z,99366.56
2023-01-19T04:44:20.991Z,99368.53
2023-01-19T04:46:47.494Z,99365.84
2023-01-19T04:49:15.827Z,99372.91
2023-01-19T04:54:38.356Z,99382.38
2023-01-19T04:57:05.705Z,99380.31
2023-01-19T04:59:34.040Z,99383.88
2023-01-19T05:02:00.472Z,99395.78
2023-01-19T05:04:27.974Z,99397.00
2023-01-19T05:09:38.605Z,99391.78
2023-01-19T05:12:06.950Z,99391.78
2023-01-19T05:14:33.368Z,99397.84
2023-01-19T05:17:00.660Z,99402.13
2023-01-19T05:19:29.783Z,99410.03
2023-01-19T05:24:51.635Z,99404.47
2023-01-19T05:27:18.885Z,99401.69
2023-01-19T05:29:46.166Z,99393.34
2023-01-19T05:32:13.537Z,99399.69
2023-01-19T05:34:40.035Z,99395.19
2023-01-19T05:39:51.445Z,99410.34
2023-01-19T05:42:18.787Z,99427.41
2023-01-19T05:44:46.247Z,99430.13
2023-01-19T05:47:12.947Z,99429.75
2023-01-19T05:49:40.449Z,99425.94
2023-01-19T05:52:06.919Z,99422.03
2023-01-19T05:54:33.415Z,99425.56
2023-01-19T05:57:00.816Z,99432.75
2023-01-19T05:59:27.551Z,99431.22
2023-01-19T06:01:55.010Z,99421.75
2023-01-19T06:04:22.407Z,99430.03
2023-01-19T06:06:49.163Z,99431.06
2023-01-19T06:09:15.888Z,99435.59
2023-01-19T06:11:43.510Z,99446.22
2023-01-19T06:14:10.004Z,99442.00
2023-01-19T06:16:37.399Z,99441.22
2023-01-19T06:19:04.882Z,99452.16
2023-01-19T06:21:31.498Z,99451.38
2023-01-19T06:23:58.892Z,99462.47
2023-01-19T06:26:26.332Z,99477.38
2023-01-19T06:28:52.840Z,99487.06
2023-01-19T06:31:20.351Z,99493.28
2023-01-19T06:33:46.815Z,99499.19
2023-01-19T06:36:13.215Z,99503.94
2023-01-19T06:38:40.595Z,99505.03
2023-01-19T06:41:07.084Z,99507.47
2023-01-19T06:43:33.561Z,99503.81
2023-01-19T06:46:01.020Z,99511.50
2023-01-19T06:48:28.557Z,99517.28
2023-01-19T06:50:55.551Z,99527.25
2023-01-19T06:53:23.046Z,99526.75
2023-01-19T06:55:50.413Z,99523.06
2023-01-19T06:58:17.236Z,99520.75
2023-01-19T07:00:43.728Z,99525.41
2023-01-19T07:03:10.276Z,99521.50
2023-01-19T07:05:37.921Z,99516.22
2023-01-19T07:08:04.380Z,99513.94
2023-01-19T07:13:16.926Z,99516.22
2023-01-19T07:15:44.516Z,99505.81
2023-01-19T07:18:11.925Z,99497.56
2023-01-19T07:20:39.288Z,99498.28
2023-01-19T07:23:06.676Z,99495.94
2023-01-19T07:28:18.142Z,99512.59
2023-01-19T07:30:45.575Z,99511.03
2023-01-19T07:33:12.250Z,99502.69
2023-01-19T07:35:39.645Z,99501.44
2023-01-19T07:38:06.110Z,99510.25
2023-01-19T07:43:17.592Z,99507.41
2023-01-19T07:45:44.068Z,99506.97
2023-01-19T07:48:12.444Z,99516.34
2023-01-19T07:50:38.891Z,99519.59
2023-01-19T07:53:06.268Z,99529.63
2023-01-19T07:58:28.186Z,99540.31
2023-01-19T08:00:55.614Z,99552.59
2023-01-19T08:03:22.940Z,99547.03
2023-01-19T08:05:51.250Z,99547.50
2023-01-19T08:08:17.705Z,99554.31
2023-01-19T08:13:40.110Z,99542.72
2023-01-19T08:16:06.709Z,99532.75
2023-01-19T08:18:34.181Z,99529.97
2023-01-19T08:21:00.646Z,99537.00
2023-01-19T08:23:27.130Z,99519.53
2023-01-19T08:28:37.762Z,99522.22
2023-01-19T08:31:18.736Z,99518.28
2023-01-19T08:33:47.053Z,99507.13
2023-01-19T08:36:13.513Z,99505.81
2023-01-19T08:38:39.937Z,99511.41
2023-01-19T08:44:00.295Z,99520.41
2023-01-19T08:46:26.778Z,99518.41
2023-01-19T08:48:53.245Z,99527.53
2023-01-19T08:51:20.653Z,99519.91
2023-01-19T08:53:47.122Z,99525.66
2023-01-19T08:59:10.809Z,99541.97
2023-01-19T09:01:38.604Z,99549.41
2023-01-19T09:04:06.067Z,99552.25
2023-01-19T09:06:32.526Z,99559.78
2023-01-19T09:08:59.229Z,99549.34
2023-01-19T09:14:10.630Z,99549.78
2023-01-19T09:16:37.169Z,99550.97
2023-01-19T09:19:03.661Z,99550.25
2023-01-19T09:21:31.090Z,99547.13
2023-01-19T09:23:58.572Z,99537.56
2023-01-19T09:29:09.285Z,99561.59
2023-01-19T09:31:35.824Z,99563.47
2023-01-19T09:34:02.306Z,99565.41
2023-01-19T09:36:28.765Z,99573.75
2023-01-19T09:38:55.238Z,99568.13
2023-01-19T09:44:16.881Z,99565.78
2023-01-19T09:46:43.408Z,99571.63
2023-01-19T09:49:10.770Z,99564.03
2023-01-19T09:51:38.168Z,99564.56
2023-01-19T09:54:04.669Z,99561.34
2023-01-19T09:59:16.138Z,99550.72
2023-01-19T10:01:43.557Z,99552.66
2023-01-19T10:04:10.050Z,99563.41
2023-01-19T10:06:36.499Z,99552.28
2023-01-19T10:09:02.978Z,99553.44
2023-01-19T10:11:42.066Z,99552.28
2023-01-19T10:14:19.660Z,99555.00
2023-01-19T10:16:46.328Z,99550.56
2023-01-19T10:19:13.823Z,99547.09
2023-01-19T10:21:40.311Z,99542.75
2023-01-19T10:24:06.788Z,99535.56
2023-01-19T10:26:34.189Z,99535.63
2023-01-19T10:29:01.571Z,99537.63
2023-01-19T10:31:29.061Z,99538.47
2023-01-19T10:33:56.542Z,99534.41
2023-01-19T10:36:23.939Z,99537.50
2023-01-19T10:38:51.557Z,99534.50
2023-01-19T10:41:18.028Z,99539.25
2023-01-19T10:43:45.415Z,99527.28
2023-01-19T10:46:11.976Z,99523.72
2023-01-19T10:48:38.458Z,99522.06
2023-01-19T10:51:05.858Z,99514.16
2023-01-19T10:53:33.254Z,99526.09
2023-01-19T10:56:00.749Z,99524.09
2023-01-19T10:58:28.209Z,99520.16
2023-01-19T11:00:55.670Z,99523.66
2023-01-19T11:03:22.198Z,99521.31
2023-01-19T11:05:48.751Z,99516.88
2023-01-19T11:08:15.217Z,99518.22
2023-01-19T11:10:42.617Z,99515.88
2023-01-19T11:13:09.192Z,99520.06
2023-01-19T11:15:36.568Z,99521.38
2023-01-19T11:18:03.962Z,99519.00
2023-01-19T11:20:31.363Z,99508.97
2023-01-19T11:22:57.799Z,99509.47
2023-01-19T11:25:24.238Z,99519.31
2023-01-19T11:27:51.586Z,99509.47
2023-01-19T11:33:12.136Z,99507.81
2023-01-19T11:35:38.601Z,99503.72
2023-01-19T11:38:05.061Z,99511.81
2023-01-19T11:40:32.610Z,99503.03
2023-01-19T11:43:00.268Z,99495.78
2023-01-19T11:48:21.718Z,99490.38
2023-01-19T11:50:48.179Z,99497.06
2023-01-19T11:53:15.534Z,99496.72
2023-01-19T11:55:42.051Z,99486.44
2023-01-19T11:58:09.407Z,99489.94
2023-01-19T12:03:21.489Z,99493.56
2023-01-19T12:05:48.358Z,99499.34
2023-01-19T12:08:14.927Z,99496.50
2023-01-19T12:10:41.365Z,99502.47
2023-01-19T12:13:08.757Z,99498.09
2023-01-19T12:18:19.874Z,99498.22
2023-01-19T12:20:46.300Z,99487.44
2023-01-19T12:23:12.750Z,99485.66
2023-01-19T12:25:40.113Z,99488.00
2023-01-19T12:28:06.582Z,99486.38
2023-01-19T12:33:18.192Z,99488.09
2023-01-19T12:35:44.628Z,99488.72
2023-01-19T12:38:11.133Z,99485.25
2023-01-19T12:40:37.543Z,99483.66
2023-01-19T12:43:04.816Z,99481.22
2023-01-19T12:48:25.358Z,99480.81
2023-01-19T12:50:51.823Z,99476.25
2023-01-19T12:53:19.111Z,99484.53
2023-01-19T12:55:47.489Z,99488.91
2023-01-19T12:58:14.859Z,99482.03
2023-01-19T13:03:35.158Z,99470.13
2023-01-19T13:06:01.661Z,99479.31
2023-01-19T13:08:28.097Z,99474.50
2023-01-19T13:10:55.599Z,99467.34
2023-01-19T13:13:22.887Z,99463.38
2023-01-19T13:18:34.301Z,99469.28
2023-01-19T13:21:00.744Z,99475.69
2023-01-19T13:23:27.986Z,99464.94
2023-01-19T13:25:55.280Z,99469.06
2023-01-19T13:28:22.545Z,99466.28
2023-01-19T13:33:33.773Z,99469.78
2023-01-19T13:36:00.209Z,99469.84
2023-01-19T13:38:27.550Z,99472.56
2023-01-19T13:40:53.891Z,99484.53
2023-01-19T13:43:20.326Z,99477.31
2023-01-19T13:48:31.975Z,99481.47
2023-01-19T13:50:59.312Z,99486.13
2023-01-19T13:53:25.769Z,99487.31
2023-01-19T13:55:53.150Z,99493.28
2023-01-19T13:58:19.963Z,99504.34
2023-01-19T14:03:31.657Z,99498.50
2023-01-19T14:05:59.123Z,99501.56
2023-01-19T14:08:26.533Z,99506.41
2023-01-19T14:10:53.933Z,99501.91
2023-01-19T14:13:20.377Z,99504.34
2023-01-19T14:15:47.073Z,99511.50
2023-01-19T14:18:14.452Z,99508.22
2023-01-19T14:20:41.853Z,99508.63
2023-01-19T14:23:08.382Z,99503.00
2023-01-19T14:25:35.782Z,99499.00
2023-01-19T14:28:02.260Z,99502.50
2023-01-19T14:30:28.769Z,99499.81
2023-01-19T14:32:56.200Z,99497.72
2023-01-19T14:35:22.667Z,99488.59
2023-01-19T14:37:50.077Z,99488.03
2023-01-19T14:40:17.512Z,99499.94
2023-01-19T14:42:44.906Z,99498.94
2023-01-19T14:45:12.954Z,99503.22
2023-01-19T14:47:39.446Z,99503.50
2023-01-19T14:50:05.947Z,99498.56
2023-01-19T14:52:32.540Z,99494.59
2023-01-19T14:54:59.058Z,99499.94
2023-01-19T14:57:26.491Z,99500.88
2023-01-19T14:59:53.961Z,99495.72
2023-01-19T15:02:21.436Z,99501.78
2023-01-19T15:04:48.114Z,99504.56
2023-01-19T15:07:14.679Z,99510.25
2023-01-19T15:09:42.099Z,99519.38
2023-01-19T15:12:08.578Z,99520.59
2023-01-19T15:14:35.074Z,99522.63
2023-01-19T15:17:02.708Z,99525.75
2023-01-19T15:22:13.296Z,99519.50
2023-01-19T15:24:39.774Z,99513.16
2023-01-19T15:27:07.197Z,99527.06
2023-01-19T15:29:34.555Z,99517.13
2023-01-19T15:32:02.519Z,99510.81
2023-01-19T15:37:14.016Z,99529.47
2023-01-19T15:39:55.576Z,99524.34
2023-01-19T15:42:22.034Z,99527.91
2023-01-19T15:44:49.357Z,99519.97
2023-01-19T15:47:15.797Z,99531.53
2023-01-19T15:52:37.299Z,99532.28
2023-01-19T15:55:03.780Z,99532.06
2023-01-19T15:57:30.243Z,99536.50
2023-01-19T15:59:56.870Z,99534.50
2023-01-19T16:02:23.456Z,99535.59
2023-01-19T16:07:34.589Z,99534.34
2023-01-19T16:10:02.053Z,99531.88
2023-01-19T16:12:28.698Z,99535.41
2023-01-19T16:14:55.196Z,99540.13
2023-01-19T16:17:21.671Z,99540.50
2023-01-19T16:22:42.727Z,99531.09
2023-01-19T16:25:09.359Z,99540.13
2023-01-19T16:27:37.753Z,99539.28
2023-01-19T16:30:06.075Z,99539.03
2023-01-19T16:32:34.356Z,99539.97
2023-01-19T16:37:45.076Z,99545.66
2023-01-19T16:40:12.002Z,99542.50
2023-01-19T16:42:38.768Z,99548.06
2023-01-19T16:45:05.262Z,99546.94
2023-01-19T16:47:32.721Z,99542.16
2023-01-19T16:52:44.498Z,99551.59
2023-01-19T16:55:11.935Z,99553.97
2023-01-19T16:57:38.428Z,99555.50
2023-01-19T17:00:05.877Z,99549.88
2023-01-19T17:02:32.569Z,99553.50
2023-01-19T17:07:43.078Z,99547.09
2023-01-19T17:10:09.958Z,99556.94
2023-01-19T17:12:37.578Z,99546.31
2023-01-19T17:15:04.073Z,99545.84
2023-01-19T17:17:31.456Z,99544.59
2023-01-19T17:22:51.808Z,99542.28
2023-01-19T17:25:18.303Z,99542.97
2023-01-19T17:27:44.781Z,99540.56
2023-01-19T17:30:12.368Z,99535.41
2023-01-19T17:32:38.986Z,99526.66
2023-01-19T17:38:01.313Z,99525.81
2023-01-19T17:40:29.016Z,99533.88
2023-01-19T17:42:55.361Z,99527.94
2023-01-19T17:45:22.616Z,99534.22
2023-01-19T17:47:49.042Z,99533.00
2023-01-19T17:53:00.198Z,99534.94
2023-01-19T17:55:26.637Z,99540.91
2023-01-19T17:57:53.106Z,99537.66
2023-01-19T18:00:20.342Z,99542.50
2023-01-19T18:02:47.664Z,99536.09
2023-01-19T18:08:00.562Z,99541.28
2023-01-19T18:10:27.879Z,99542.06
2023-01-19T18:12:55.180Z,99534.00
2023-01-19T18:15:21.613Z,99526.72
2023-01-19T18:17:48.928Z,99522.06
2023-01-19T18:20:15.384Z,99529.28
2023-01-19T18:22:43.767Z,99528.06
2023-01-19T18:25:11.091Z,99532.13
2023-01-19T18:27:37.576Z,99541.25
2023-01-19T18:30:04.841Z,99541.66
2023-01-19T18:32:31.295Z,99536.41
2023-01-19T18:34:58.731Z,99537.97
2023-01-19T18:37:27.841Z,99535.56
2023-01-19T18:39:55.333Z,99540.75
2023-01-19T18:42:23.681Z,99537.13
2023-01-19T18:44:50.921Z,99534.41
2023-01-19T18:47:18.031Z,99540.75
2023-01-19T18:49:45.302Z,99530.84
2023-01-19T18:52:12.597Z,99533.63
2023-01-19T18:54:42.542Z,99532.84
2023-01-19T18:57:09.802Z,99531.25
2023-01-19T18:59:37.068Z,99535.63
2023-01-19T19:02:04.333Z,99534.41
2023-01-19T19:04:32.705Z,99533.97
2023-01-19T19:06:59.961Z,99540.41
2023-01-19T19:09:27.280Z,99541.97
2023-01-19T19:11:55.608Z,99548.75
2023-01-19T19:14:22.121Z,99549.94
2023-01-19T19:16:49.411Z,99547.38
2023-01-19T19:19:15.859Z,99545.06
2023-01-19T19:21:43.283Z,99544.66
2023-01-19T19:24:10.652Z,99543.13
2023-01-19T19:26:37.084Z,99539.97
2023-01-19T19:29:03.566Z,99553.94
2023-01-19T19:31:30.076Z,99551.16
2023-01-19T19:33:57.642Z,99549.94
2023-01-19T19:36:25.018Z,99555.50
2023-01-19T19:41:36.567Z,99561.13
2023-01-19T19:44:03.950Z,99561.13
2023-01-19T19:46:31.420Z,99562.31
2023-01-19T19:48:57.934Z,99568.69
2023-01-19T19:51:24.434Z,99568.25
2023-01-19T19:56:45.742Z,99569.81
2023-01-19T19:59:12.220Z,99577.72
2023-01-19T20:01:38.876Z,99577.72
2023-01-19T20:04:05.565Z,99576.97
2023-01-19T20:06:32.028Z,99576.19
2023-01-19T20:11:43.297Z,99573.81
2023-01-19T20:14:10.713Z,99584.94
2023-01-19T20:16:37.181Z,99580.94
2023-01-19T20:19:05.948Z,99585.66
2023-01-19T20:21:33.394Z,99587.31
2023-01-19T20:26:43.824Z,99593.28
2023-01-19T20:29:10.337Z,99596.41
2023-01-19T20:31:37.079Z,99603.97
2023-01-19T20:34:04.560Z,99601.19
2023-01-19T20:36:31.971Z,99606.38
2023-01-19T20:41:53.047Z,99601.69
2023-01-19T20:44:20.457Z,99609.16
2023-01-19T20:46:47.855Z,99612.72
2023-01-19T20:49:15.378Z,99607.94
2023-01-19T20:51:41.827Z,99609.16
2023-01-19T20:56:52.373Z,99611.50
2023-01-19T20:59:19.760Z,99615.88
2023-01-19T21:01:47.190Z,99614.72
2023-01-19T21:04:14.672Z,99613.56
2023-01-19T21:06:42.062Z,99617.47
2023-01-19T21:11:53.279Z,99622.63
2023-01-19T21:14:19.733Z,99619.50
2023-01-19T21:16:47.176Z,99623.44
2023-01-19T21:19:14.684Z,99620.25
2023-01-19T21:21:41.136Z,99635.75
2023-01-19T21:26:53.399Z,99639.31
2023-01-19T21:29:19.854Z,99638.53
2023-01-19T21:31:46.448Z,99641.66
2023-01-19T21:34:13.027Z,99650.56
2023-01-19T21:36:39.684Z,99653.50
2023-01-19T21:41:50.283Z,99665.47
2023-01-19T21:44:16.817Z,99663.47
2023-01-19T21:46:43.451Z,99673.00
2023-01-19T21:49:10.908Z,99671.41
2023-01-19T21:51:37.442Z,99678.50
2023-01-19T21:56:59.000Z,99686.56
2023-01-19T21:59:26.445Z,99683.00
2023-01-19T22:01:53.969Z,99684.13
2023-01-19T22:04:21.393Z,99693.34
2023-01-19T22:06:50.905Z,99694.13
2023-01-19T22:09:18.376Z,99689.75
2023-01-19T22:11:46.089Z,99693.75
2023-01-19T22:14:13.800Z,99689.75
2023-01-19T22:16:40.311Z,99691.34
2023-01-19T22:19:07.868Z,99691.34
2023-01-19T22:21:34.496Z,99690.91
2023-01-19T22:24:00.967Z,99697.66
2023-01-19T22:26:27.504Z,99701.25
2023-01-19T22:28:54.910Z,99699.19
2023-01-19T22:31:21.501Z,99689.59
2023-01-19T22:33:48.940Z,99694.00
2023-01-19T22:36:16.305Z,99699.56
2023-01-19T22:38:43.688Z,99700.41
2023-01-19T22:41:10.148Z,99708.38
2023-01-19T22:43:36.589Z,99723.03
2023-01-19T22:46:04.300Z,99721.13
2023-01-19T22:48:30.820Z,99727.09
2023-01-19T22:50:58.188Z,99725.03
2023-01-19T22:53:25.566Z,99723.09
2023-01-19T22:55:52.865Z,99718.34
2023-01-19T22:58:19.484Z,99715.19
2023-01-19T23:00:45.916Z,99717.94
2023-01-19T23:03:13.461Z,99721.91
2023-01-19T23:05:40.830Z,99728.72
2023-01-19T23:08:08.105Z,99728.25
2023-01-19T23:10:34.527Z,99736.22
2023-01-19T23:13:00.967Z,99740.25
2023-01-19T23:15:28.332Z,99739.00
2023-01-19T23:17:55.629Z,99748.16
2023-01-19T23:20:22.948Z,99754.91
2023-01-19T23:22:50.171Z,99760.03
2023-01-19T23:25:16.598Z,99760.88
2023-01-19T23:30:37.786Z,99760.16
2023-01-19T23:33:05.049Z,99761.69
2023-01-19T23:35:33.330Z,99756.19
2023-01-19T23:38:01.638Z,99756.19
2023-01-19T23:40:28.921Z,99754.59
2023-01-19T23:45:52.198Z,99762.94
2023-01-19T23:48:20.491Z,99777.66
2023-01-19T23:50:46.925Z,99779.66
2023-01-19T23:53:13.398Z,99787.19
2023-01-19T23:55:39.836Z,99790.78
